sensor_id;sensor_type;location;lat;lon;timestamp;temperature;humidity
3005;DHT22;1512;51.486;6.610;2023-07-31T00:03:46;16.80;99.90
3005;DHT22;1512;51.486;6.610;2023-07-31T00:07:55;16.80;99.90
3005;DHT22;1512;51.486;6.610;2023-07-31T00:12:04;16.80;99.90
3005;DHT22;1512;51.486;6.610;2023-07-31T00:16:12;16.80;99.90
3005;DHT22;1512;51.486;6.610;2023-07-31T00:20:21;16.80;99.90
3005;DHT22;1512;51.486;6.610;2023-07-31T00:24:30;16.90;99.90
3005;DHT22;1512;51.486;6.610;2023-07-31T00:28:38;16.90;99.90
3005;DHT22;1512;51.486;6.610;2023-07-31T00:32:47;16.90;99.90
3005;DHT22;1512;51.486;6.610;2023-07-31T00:36:56;16.90;99.90
3005;DHT22;1512;51.486;6.610;2023-07-31T00:41:05;16.90;99.90
3005;DHT22;1512;51.486;6.610;2023-07-31T00:45:13;16.90;99.90
3005;DHT22;1512;51.486;6.610;2023-07-31T00:49:22;16.90;99.90
3005;DHT22;1512;51.486;6.610;2023-07-31T00:53:31;16.90;99.90
3005;DHT22;1512;51.486;6.610;2023-07-31T00:57:41;16.90;99.90
3005;DHT22;1512;51.486;6.610;2023-07-31T01:01:50;16.90;99.90
3005;DHT22;1512;51.486;6.610;2023-07-31T01:06:28;16.90;92.00
3005;DHT22;1512;51.486;6.610;2023-07-31T01:10:37;16.90;99.90
3005;DHT22;1512;51.486;6.610;2023-07-31T01:19:12;16.90;74.70
3005;DHT22;1512;51.486;6.610;2023-07-31T01:27:51;16.90;20.00
3005;DHT22;1512;51.486;6.610;2023-07-31T01:31:59;16.90;1.00
3005;DHT22;1512;51.486;6.610;2023-07-31T01:36:09;16.90;1.00
3005;DHT22;1512;51.486;6.610;2023-07-31T01:40:18;16.90;1.00
3005;DHT22;1512;51.486;6.610;2023-07-31T01:44:27;16.80;1.00
3005;DHT22;1512;51.486;6.610;2023-07-31T01:48:36;16.90;1.00
3005;DHT22;1512;51.486;6.610;2023-07-31T01:52:45;16.90;99.90
3005;DHT22;1512;51.486;6.610;2023-07-31T01:56:53;16.80;99.90
3005;DHT22;1512;51.486;6.610;2023-07-31T02:01:02;16.80;99.90
3005;DHT22;1512;51.486;6.610;2023-07-31T02:05:10;16.80;1.00
3005;DHT22;1512;51.486;6.610;2023-07-31T02:09:19;16.80;99.90
3005;DHT22;1512;51.486;6.610;2023-07-31T02:13:27;16.80;1.00
3005;DHT22;1512;51.486;6.610;2023-07-31T02:17:36;16.80;1.00
3005;DHT22;1512;51.486;6.610;2023-07-31T02:21:45;16.80;1.00
3005;DHT22;1512;51.486;6.610;2023-07-31T02:26:13;16.80;99.90
3005;DHT22;1512;51.486;6.610;2023-07-31T02:30:21;16.80;97.60
3005;DHT22;1512;51.486;6.610;2023-07-31T02:34:30;16.80;99.90
3005;DHT22;1512;51.486;6.610;2023-07-31T02:38:39;16.80;99.90
3005;DHT22;1512;51.486;6.610;2023-07-31T02:42:47;16.80;1.00
3005;DHT22;1512;51.486;6.610;2023-07-31T02:46:56;16.80;24.90
3005;DHT22;1512;51.486;6.610;2023-07-31T02:51:04;16.80;1.00
3005;DHT22;1512;51.486;6.610;2023-07-31T02:55:13;16.80;1.00
3005;DHT22;1512;51.486;6.610;2023-07-31T02:59:22;16.80;1.00
3005;DHT22;1512;51.486;6.610;2023-07-31T03:03:30;16.90;1.00
3005;DHT22;1512;51.486;6.610;2023-07-31T03:07:39;16.80;1.00
3005;DHT22;1512;51.486;6.610;2023-07-31T03:11:48;16.80;1.00
3005;DHT22;1512;51.486;6.610;2023-07-31T03:15:56;16.80;99.90
3005;DHT22;1512;51.486;6.610;2023-07-31T03:20:05;16.80;99.90
3005;DHT22;1512;51.486;6.610;2023-07-31T03:24:14;16.80;1.00
3005;DHT22;1512;51.486;6.610;2023-07-31T03:28:23;16.80;99.90
3005;DHT22;1512;51.486;6.610;2023-07-31T03:32:32;16.90;99.90
3005;DHT22;1512;51.486;6.610;2023-07-31T03:36:40;16.90;99.90
3005;DHT22;1512;51.486;6.610;2023-07-31T03:40:49;16.90;99.90
3005;DHT22;1512;51.486;6.610;2023-07-31T03:44:58;16.90;99.90
3005;DHT22;1512;51.486;6.610;2023-07-31T03:49:06;17.00;1.00
3005;DHT22;1512;51.486;6.610;2023-07-31T03:53:15;17.00;99.90
3005;DHT22;1512;51.486;6.610;2023-07-31T03:57:23;17.00;99.90
3005;DHT22;1512;51.486;6.610;2023-07-31T04:01:32;17.00;95.50
3005;DHT22;1512;51.486;6.610;2023-07-31T04:05:41;17.00;1.00
3005;DHT22;1512;51.486;6.610;2023-07-31T04:09:49;17.10;1.00
3005;DHT22;1512;51.486;6.610;2023-07-31T04:13:58;17.10;99.90
3005;DHT22;1512;51.486;6.610;2023-07-31T04:18:07;17.10;99.90
3005;DHT22;1512;51.486;6.610;2023-07-31T04:22:15;17.10;1.00
3005;DHT22;1512;51.486;6.610;2023-07-31T04:26:24;17.10;1.00
3005;DHT22;1512;51.486;6.610;2023-07-31T04:30:32;17.10;1.00
3005;DHT22;1512;51.486;6.610;2023-07-31T04:34:41;17.10;95.50
3005;DHT22;1512;51.486;6.610;2023-07-31T04:38:50;17.20;99.90
3005;DHT22;1512;51.486;6.610;2023-07-31T04:42:58;17.20;1.00
3005;DHT22;1512;51.486;6.610;2023-07-31T04:47:07;17.20;1.00
3005;DHT22;1512;51.486;6.610;2023-07-31T04:51:15;17.20;99.90
3005;DHT22;1512;51.486;6.610;2023-07-31T04:55:24;17.20;99.90
3005;DHT22;1512;51.486;6.610;2023-07-31T04:59:33;17.30;1.00
3005;DHT22;1512;51.486;6.610;2023-07-31T05:03:41;17.30;99.90
3005;DHT22;1512;51.486;6.610;2023-07-31T05:07:50;17.30;1.00
3005;DHT22;1512;51.486;6.610;2023-07-31T05:11:59;17.30;1.00
3005;DHT22;1512;51.486;6.610;2023-07-31T05:16:07;17.30;99.90
3005;DHT22;1512;51.486;6.610;2023-07-31T05:20:16;17.30;99.90
3005;DHT22;1512;51.486;6.610;2023-07-31T05:24:25;17.30;1.00
3005;DHT22;1512;51.486;6.610;2023-07-31T05:28:35;17.30;99.90
3005;DHT22;1512;51.486;6.610;2023-07-31T05:32:44;17.30;99.90
3005;DHT22;1512;51.486;6.610;2023-07-31T05:36:53;17.30;1.00
3005;DHT22;1512;51.486;6.610;2023-07-31T05:41:02;17.30;99.90
3005;DHT22;1512;51.486;6.610;2023-07-31T05:45:10;17.30;1.00
3005;DHT22;1512;51.486;6.610;2023-07-31T05:49:21;17.40;99.90
3005;DHT22;1512;51.486;6.610;2023-07-31T05:53:29;17.40;1.00
3005;DHT22;1512;51.486;6.610;2023-07-31T05:57:38;17.40;1.00
3005;DHT22;1512;51.486;6.610;2023-07-31T06:01:46;17.40;99.90
3005;DHT22;1512;51.486;6.610;2023-07-31T06:05:55;17.40;1.00
3005;DHT22;1512;51.486;6.610;2023-07-31T06:10:04;17.40;99.90
3005;DHT22;1512;51.486;6.610;2023-07-31T06:14:13;17.50;1.00
3005;DHT22;1512;51.486;6.610;2023-07-31T06:18:22;17.50;1.00
3005;DHT22;1512;51.486;6.610;2023-07-31T06:22:31;17.50;1.00
3005;DHT22;1512;51.486;6.610;2023-07-31T06:26:39;17.50;1.00
3005;DHT22;1512;51.486;6.610;2023-07-31T06:30:49;17.40;1.00
3005;DHT22;1512;51.486;6.610;2023-07-31T06:34:57;17.40;1.00
3005;DHT22;1512;51.486;6.610;2023-07-31T06:39:06;17.40;1.00
3005;DHT22;1512;51.486;6.610;2023-07-31T06:43:15;17.40;1.00
3005;DHT22;1512;51.486;6.610;2023-07-31T06:47:23;17.40;1.00
3005;DHT22;1512;51.486;6.610;2023-07-31T06:51:51;17.40;1.00
3005;DHT22;1512;51.486;6.610;2023-07-31T06:56:00;17.30;1.00
3005;DHT22;1512;51.486;6.610;2023-07-31T07:00:09;17.30;31.70
3005;DHT22;1512;51.486;6.610;2023-07-31T07:04:18;17.30;83.00
3005;DHT22;1512;51.486;6.610;2023-07-31T07:08:26;17.30;89.90
3005;DHT22;1512;51.486;6.610;2023-07-31T07:12:35;17.30;99.90
3005;DHT22;1512;51.486;6.610;2023-07-31T07:16:44;17.30;99.90
3005;DHT22;1512;51.486;6.610;2023-07-31T07:20:54;17.30;99.90
3005;DHT22;1512;51.486;6.610;2023-07-31T07:25:05;17.30;99.90
3005;DHT22;1512;51.486;6.610;2023-07-31T07:29:15;17.30;99.90
3005;DHT22;1512;51.486;6.610;2023-07-31T07:33:23;17.30;99.90
3005;DHT22;1512;51.486;6.610;2023-07-31T07:37:32;17.30;99.90
3005;DHT22;1512;51.486;6.610;2023-07-31T07:41:41;17.30;99.90
3005;DHT22;1512;51.486;6.610;2023-07-31T07:45:50;17.20;99.90
3005;DHT22;1512;51.486;6.610;2023-07-31T07:49:58;17.10;99.90
3005;DHT22;1512;51.486;6.610;2023-07-31T07:54:07;17.10;99.90
3005;DHT22;1512;51.486;6.610;2023-07-31T07:58:16;17.00;99.90
3005;DHT22;1512;51.486;6.610;2023-07-31T08:02:24;17.00;99.90
3005;DHT22;1512;51.486;6.610;2023-07-31T08:06:33;17.10;99.90
3005;DHT22;1512;51.486;6.610;2023-07-31T08:10:42;17.10;99.90
3005;DHT22;1512;51.486;6.610;2023-07-31T08:14:51;17.00;99.90
3005;DHT22;1512;51.486;6.610;2023-07-31T08:19:00;17.00;99.90
3005;DHT22;1512;51.486;6.610;2023-07-31T08:23:09;17.00;99.90
3005;DHT22;1512;51.486;6.610;2023-07-31T08:27:18;17.10;99.90
3005;DHT22;1512;51.486;6.610;2023-07-31T08:31:26;17.10;99.90
3005;DHT22;1512;51.486;6.610;2023-07-31T08:35:36;17.10;99.90
3005;DHT22;1512;51.486;6.610;2023-07-31T08:39:45;17.10;99.90
3005;DHT22;1512;51.486;6.610;2023-07-31T08:43:55;17.20;99.90
3005;DHT22;1512;51.486;6.610;2023-07-31T08:48:05;17.20;99.90
3005;DHT22;1512;51.486;6.610;2023-07-31T08:52:14;17.10;99.90
3005;DHT22;1512;51.486;6.610;2023-07-31T08:56:23;17.20;99.90
3005;DHT22;1512;51.486;6.610;2023-07-31T09:00:33;17.20;99.90
3005;DHT22;1512;51.486;6.610;2023-07-31T09:04:41;17.20;99.90
3005;DHT22;1512;51.486;6.610;2023-07-31T09:08:50;17.20;99.90
3005;DHT22;1512;51.486;6.610;2023-07-31T09:12:59;17.20;99.90
3005;DHT22;1512;51.486;6.610;2023-07-31T09:17:08;17.30;99.90
3005;DHT22;1512;51.486;6.610;2023-07-31T09:21:16;17.40;99.90
3005;DHT22;1512;51.486;6.610;2023-07-31T09:25:26;17.50;99.90
3005;DHT22;1512;51.486;6.610;2023-07-31T09:29:35;17.50;99.90
3005;DHT22;1512;51.486;6.610;2023-07-31T09:33:55;17.50;99.90
3005;DHT22;1512;51.486;6.610;2023-07-31T09:38:06;17.50;99.90
3005;DHT22;1512;51.486;6.610;2023-07-31T09:42:26;17.60;99.90
3005;DHT22;1512;51.486;6.610;2023-07-31T09:46:36;17.60;99.90
3005;DHT22;1512;51.486;6.610;2023-07-31T09:50:47;17.70;99.90
3005;DHT22;1512;51.486;6.610;2023-07-31T09:54:56;17.70;99.90
3005;DHT22;1512;51.486;6.610;2023-07-31T09:59:05;17.60;64.70
3005;DHT22;1512;51.486;6.610;2023-07-31T10:03:15;17.60;99.90
3005;DHT22;1512;51.486;6.610;2023-07-31T10:07:25;17.60;99.90
3005;DHT22;1512;51.486;6.610;2023-07-31T10:11:45;17.60;99.90
3005;DHT22;1512;51.486;6.610;2023-07-31T10:15:53;17.60;99.90
3005;DHT22;1512;51.486;6.610;2023-07-31T10:20:03;17.60;99.90
3005;DHT22;1512;51.486;6.610;2023-07-31T10:24:12;17.70;99.90
3005;DHT22;1512;51.486;6.610;2023-07-31T10:28:21;17.80;99.90
3005;DHT22;1512;51.486;6.610;2023-07-31T10:32:32;18.00;99.90
3005;DHT22;1512;51.486;6.610;2023-07-31T10:36:40;18.00;99.50
3005;DHT22;1512;51.486;6.610;2023-07-31T10:40:50;18.10;25.10
3005;DHT22;1512;51.486;6.610;2023-07-31T10:45:01;18.30;41.20
3005;DHT22;1512;51.486;6.610;2023-07-31T10:49:09;18.30;1.00
3005;DHT22;1512;51.486;6.610;2023-07-31T10:53:31;18.30;1.00
3005;DHT22;1512;51.486;6.610;2023-07-31T10:57:46;18.30;99.90
3005;DHT22;1512;51.486;6.610;2023-07-31T11:01:56;18.20;99.90
3005;DHT22;1512;51.486;6.610;2023-07-31T11:06:05;18.20;99.90
3005;DHT22;1512;51.486;6.610;2023-07-31T11:10:16;18.20;1.00
3005;DHT22;1512;51.486;6.610;2023-07-31T11:14:25;18.20;1.00
3005;DHT22;1512;51.486;6.610;2023-07-31T11:18:34;18.20;1.00
3005;DHT22;1512;51.486;6.610;2023-07-31T11:22:43;18.20;99.90
3005;DHT22;1512;51.486;6.610;2023-07-31T11:26:53;18.20;99.90
3005;DHT22;1512;51.486;6.610;2023-07-31T11:31:02;18.30;1.00
3005;DHT22;1512;51.486;6.610;2023-07-31T11:35:14;18.20;1.00
3005;DHT22;1512;51.486;6.610;2023-07-31T11:39:23;18.30;1.00
3005;DHT22;1512;51.486;6.610;2023-07-31T11:43:32;18.30;1.00
3005;DHT22;1512;51.486;6.610;2023-07-31T11:47:40;18.30;1.00
3005;DHT22;1512;51.486;6.610;2023-07-31T11:51:49;18.40;1.00
3005;DHT22;1512;51.486;6.610;2023-07-31T11:56:01;18.40;1.00
3005;DHT22;1512;51.486;6.610;2023-07-31T12:00:12;18.40;1.00
3005;DHT22;1512;51.486;6.610;2023-07-31T12:04:22;18.40;1.00
3005;DHT22;1512;51.486;6.610;2023-07-31T12:08:31;18.30;1.00
3005;DHT22;1512;51.486;6.610;2023-07-31T12:12:40;18.30;1.00
3005;DHT22;1512;51.486;6.610;2023-07-31T12:16:58;18.40;1.00
3005;DHT22;1512;51.486;6.610;2023-07-31T12:21:08;18.40;1.00
3005;DHT22;1512;51.486;6.610;2023-07-31T12:25:19;18.50;1.00
3005;DHT22;1512;51.486;6.610;2023-07-31T12:29:34;18.60;99.90
3005;DHT22;1512;51.486;6.610;2023-07-31T12:33:47;18.60;1.00
3005;DHT22;1512;51.486;6.610;2023-07-31T12:37:57;18.70;1.00
3005;DHT22;1512;51.486;6.610;2023-07-31T12:42:07;18.80;99.90
3005;DHT22;1512;51.486;6.610;2023-07-31T12:46:16;18.90;1.00
3005;DHT22;1512;51.486;6.610;2023-07-31T12:50:25;19.00;99.90
3005;DHT22;1512;51.486;6.610;2023-07-31T12:54:33;19.00;1.00
3005;DHT22;1512;51.486;6.610;2023-07-31T12:58:43;18.90;88.30
3005;DHT22;1512;51.486;6.610;2023-07-31T13:02:51;18.90;1.00
3005;DHT22;1512;51.486;6.610;2023-07-31T13:07:00;18.90;99.90
3005;DHT22;1512;51.486;6.610;2023-07-31T13:11:09;19.00;9.50
3005;DHT22;1512;51.486;6.610;2023-07-31T13:15:17;19.00;1.00
3005;DHT22;1512;51.486;6.610;2023-07-31T13:19:26;19.00;44.20
3005;DHT22;1512;51.486;6.610;2023-07-31T13:23:35;19.00;1.00
3005;DHT22;1512;51.486;6.610;2023-07-31T13:27:43;18.90;99.90
3005;DHT22;1512;51.486;6.610;2023-07-31T13:31:53;18.90;1.00
3005;DHT22;1512;51.486;6.610;2023-07-31T13:36:01;18.90;1.00
3005;DHT22;1512;51.486;6.610;2023-07-31T13:40:10;18.90;1.00
3005;DHT22;1512;51.486;6.610;2023-07-31T13:44:19;18.90;36.50
3005;DHT22;1512;51.486;6.610;2023-07-31T13:48:28;18.90;1.00
3005;DHT22;1512;51.486;6.610;2023-07-31T13:52:36;19.00;1.00
3005;DHT22;1512;51.486;6.610;2023-07-31T13:56:45;19.00;1.00
3005;DHT22;1512;51.486;6.610;2023-07-31T14:00:53;19.20;99.90
3005;DHT22;1512;51.486;6.610;2023-07-31T14:05:02;19.50;99.90
3005;DHT22;1512;51.486;6.610;2023-07-31T14:09:11;19.60;1.00
3005;DHT22;1512;51.486;6.610;2023-07-31T14:13:20;19.60;99.90
3005;DHT22;1512;51.486;6.610;2023-07-31T14:17:28;19.60;77.70
3005;DHT22;1512;51.486;6.610;2023-07-31T14:21:37;19.50;1.00
3005;DHT22;1512;51.486;6.610;2023-07-31T14:25:46;19.50;1.00
3005;DHT22;1512;51.486;6.610;2023-07-31T14:29:55;19.50;1.00
3005;DHT22;1512;51.486;6.610;2023-07-31T14:34:04;19.40;1.00
3005;DHT22;1512;51.486;6.610;2023-07-31T14:38:13;19.40;99.90
3005;DHT22;1512;51.486;6.610;2023-07-31T14:42:21;19.30;11.20
3005;DHT22;1512;51.486;6.610;2023-07-31T14:46:30;19.20;1.00
3005;DHT22;1512;51.486;6.610;2023-07-31T14:50:38;19.20;1.00
3005;DHT22;1512;51.486;6.610;2023-07-31T14:54:47;19.10;99.90
3005;DHT22;1512;51.486;6.610;2023-07-31T14:58:56;19.00;99.90
3005;DHT22;1512;51.486;6.610;2023-07-31T15:03:04;19.00;1.00
3005;DHT22;1512;51.486;6.610;2023-07-31T15:07:13;18.90;99.90
3005;DHT22;1512;51.486;6.610;2023-07-31T15:11:22;18.90;1.00
3005;DHT22;1512;51.486;6.610;2023-07-31T15:15:31;18.90;1.00
3005;DHT22;1512;51.486;6.610;2023-07-31T15:19:39;18.90;95.40
3005;DHT22;1512;51.486;6.610;2023-07-31T15:23:48;19.00;99.90
3005;DHT22;1512;51.486;6.610;2023-07-31T15:27:56;18.90;99.90
3005;DHT22;1512;51.486;6.610;2023-07-31T15:32:05;18.90;99.90
3005;DHT22;1512;51.486;6.610;2023-07-31T15:36:14;18.90;99.90
3005;DHT22;1512;51.486;6.610;2023-07-31T15:40:24;19.00;1.00
3005;DHT22;1512;51.486;6.610;2023-07-31T15:44:33;19.00;1.00
3005;DHT22;1512;51.486;6.610;2023-07-31T15:48:42;19.00;1.00
3005;DHT22;1512;51.486;6.610;2023-07-31T15:52:50;18.90;99.90
3005;DHT22;1512;51.486;6.610;2023-07-31T15:56:59;18.80;10.90
3005;DHT22;1512;51.486;6.610;2023-07-31T16:01:08;18.70;1.00
3005;DHT22;1512;51.486;6.610;2023-07-31T16:05:16;18.60;99.90
3005;DHT22;1512;51.486;6.610;2023-07-31T16:09:25;18.50;1.00
3005;DHT22;1512;51.486;6.610;2023-07-31T16:13:34;18.50;1.00
3005;DHT22;1512;51.486;6.610;2023-07-31T16:17:42;18.40;1.00
3005;DHT22;1512;51.486;6.610;2023-07-31T16:21:51;18.40;24.10
3005;DHT22;1512;51.486;6.610;2023-07-31T16:25:59;18.30;65.50
3005;DHT22;1512;51.486;6.610;2023-07-31T16:30:08;18.30;99.90
3005;DHT22;1512;51.486;6.610;2023-07-31T16:34:17;18.30;99.90
3005;DHT22;1512;51.486;6.610;2023-07-31T16:38:26;18.40;99.90
3005;DHT22;1512;51.486;6.610;2023-07-31T16:42:34;18.30;99.90
3005;DHT22;1512;51.486;6.610;2023-07-31T16:46:43;18.30;99.90
3005;DHT22;1512;51.486;6.610;2023-07-31T16:50:52;18.40;99.90
3005;DHT22;1512;51.486;6.610;2023-07-31T16:55:01;18.30;99.90
3005;DHT22;1512;51.486;6.610;2023-07-31T16:59:09;18.30;99.90
3005;DHT22;1512;51.486;6.610;2023-07-31T17:03:18;18.20;99.90
3005;DHT22;1512;51.486;6.610;2023-07-31T17:07:27;18.20;99.90
3005;DHT22;1512;51.486;6.610;2023-07-31T17:11:36;18.20;99.90
3005;DHT22;1512;51.486;6.610;2023-07-31T17:15:45;18.20;99.90
3005;DHT22;1512;51.486;6.610;2023-07-31T17:19:54;18.10;99.90
3005;DHT22;1512;51.486;6.610;2023-07-31T17:24:03;18.10;99.90
3005;DHT22;1512;51.486;6.610;2023-07-31T17:28:11;18.00;99.90
3005;DHT22;1512;51.486;6.610;2023-07-31T17:32:20;18.00;99.90
3005;DHT22;1512;51.486;6.610;2023-07-31T17:36:30;18.00;99.90
3005;DHT22;1512;51.486;6.610;2023-07-31T17:40:40;18.00;99.90
3005;DHT22;1512;51.486;6.610;2023-07-31T17:44:49;17.90;99.90
3005;DHT22;1512;51.486;6.610;2023-07-31T17:48:57;17.90;99.90
3005;DHT22;1512;51.486;6.610;2023-07-31T17:53:06;17.90;99.90
3005;DHT22;1512;51.486;6.610;2023-07-31T17:57:15;17.80;99.90
3005;DHT22;1512;51.486;6.610;2023-07-31T18:01:24;17.80;99.90
3005;DHT22;1512;51.486;6.610;2023-07-31T18:05:33;17.80;99.90
3005;DHT22;1512;51.486;6.610;2023-07-31T18:09:41;17.80;99.90
3005;DHT22;1512;51.486;6.610;2023-07-31T18:13:51;17.70;99.90
3005;DHT22;1512;51.486;6.610;2023-07-31T18:18:01;17.70;99.90
3005;DHT22;1512;51.486;6.610;2023-07-31T18:22:09;17.70;99.90
3005;DHT22;1512;51.486;6.610;2023-07-31T18:26:18;17.70;99.90
3005;DHT22;1512;51.486;6.610;2023-07-31T18:30:27;17.70;99.90
3005;DHT22;1512;51.486;6.610;2023-07-31T18:34:36;17.60;99.90
3005;DHT22;1512;51.486;6.610;2023-07-31T18:38:45;17.60;99.90
3005;DHT22;1512;51.486;6.610;2023-07-31T18:42:53;17.60;99.90
3005;DHT22;1512;51.486;6.610;2023-07-31T18:47:04;17.70;99.90
3005;DHT22;1512;51.486;6.610;2023-07-31T18:51:12;17.60;99.90
3005;DHT22;1512;51.486;6.610;2023-07-31T18:55:21;17.70;99.90
3005;DHT22;1512;51.486;6.610;2023-07-31T18:59:30;17.60;99.90
3005;DHT22;1512;51.486;6.610;2023-07-31T19:03:39;17.60;99.90
3005;DHT22;1512;51.486;6.610;2023-07-31T19:07:47;17.70;99.90
3005;DHT22;1512;51.486;6.610;2023-07-31T19:11:56;17.60;99.90
3005;DHT22;1512;51.486;6.610;2023-07-31T19:16:04;17.60;99.90
3005;DHT22;1512;51.486;6.610;2023-07-31T19:20:15;17.60;99.90
3005;DHT22;1512;51.486;6.610;2023-07-31T19:24:23;17.60;99.90
3005;DHT22;1512;51.486;6.610;2023-07-31T19:28:34;17.60;99.90
3005;DHT22;1512;51.486;6.610;2023-07-31T19:32:42;17.60;99.90
3005;DHT22;1512;51.486;6.610;2023-07-31T19:36:51;17.60;99.90
3005;DHT22;1512;51.486;6.610;2023-07-31T19:41:00;17.60;99.90
3005;DHT22;1512;51.486;6.610;2023-07-31T19:45:09;17.60;99.90
3005;DHT22;1512;51.486;6.610;2023-07-31T19:49:17;17.60;99.90
3005;DHT22;1512;51.486;6.610;2023-07-31T19:53:26;17.60;99.90
3005;DHT22;1512;51.486;6.610;2023-07-31T19:57:35;17.60;99.90
3005;DHT22;1512;51.486;6.610;2023-07-31T20:01:43;17.60;99.90
3005;DHT22;1512;51.486;6.610;2023-07-31T20:05:52;17.60;99.90
3005;DHT22;1512;51.486;6.610;2023-07-31T20:10:01;17.70;99.90
3005;DHT22;1512;51.486;6.610;2023-07-31T20:14:10;17.70;99.90
3005;DHT22;1512;51.486;6.610;2023-07-31T20:18:18;17.70;99.90
3005;DHT22;1512;51.486;6.610;2023-07-31T20:22:27;17.70;99.90
3005;DHT22;1512;51.486;6.610;2023-07-31T20:26:36;17.80;99.90
3005;DHT22;1512;51.486;6.610;2023-07-31T20:30:45;17.70;99.90
3005;DHT22;1512;51.486;6.610;2023-07-31T20:34:54;17.70;99.90
3005;DHT22;1512;51.486;6.610;2023-07-31T20:39:03;17.80;99.90
3005;DHT22;1512;51.486;6.610;2023-07-31T20:43:12;17.70;99.90
3005;DHT22;1512;51.486;6.610;2023-07-31T20:47:23;17.80;99.90
3005;DHT22;1512;51.486;6.610;2023-07-31T20:51:31;17.80;99.90
3005;DHT22;1512;51.486;6.610;2023-07-31T20:55:42;17.80;99.90
3005;DHT22;1512;51.486;6.610;2023-07-31T20:59:50;17.80;99.90
3005;DHT22;1512;51.486;6.610;2023-07-31T21:03:59;17.80;99.90
3005;DHT22;1512;51.486;6.610;2023-07-31T21:08:08;17.80;99.90
3005;DHT22;1512;51.486;6.610;2023-07-31T21:12:17;17.80;99.90
3005;DHT22;1512;51.486;6.610;2023-07-31T21:16:25;17.80;99.90
3005;DHT22;1512;51.486;6.610;2023-07-31T21:20:35;17.80;99.90
3005;DHT22;1512;51.486;6.610;2023-07-31T21:24:44;17.80;99.90
3005;DHT22;1512;51.486;6.610;2023-07-31T21:28:53;17.80;99.90
3005;DHT22;1512;51.486;6.610;2023-07-31T21:33:02;17.80;99.90
3005;DHT22;1512;51.486;6.610;2023-07-31T21:37:11;17.70;99.90
3005;DHT22;1512;51.486;6.610;2023-07-31T21:41:19;17.60;99.90
3005;DHT22;1512;51.486;6.610;2023-07-31T21:45:28;17.50;99.90
3005;DHT22;1512;51.486;6.610;2023-07-31T21:49:36;17.50;99.90
3005;DHT22;1512;51.486;6.610;2023-07-31T21:53:45;17.40;99.90
3005;DHT22;1512;51.486;6.610;2023-07-31T21:57:54;17.40;99.90
3005;DHT22;1512;51.486;6.610;2023-07-31T22:02:03;17.30;99.90
3005;DHT22;1512;51.486;6.610;2023-07-31T22:06:12;17.30;99.90
3005;DHT22;1512;51.486;6.610;2023-07-31T22:10:21;17.30;99.90
3005;DHT22;1512;51.486;6.610;2023-07-31T22:14:29;17.20;99.90
3005;DHT22;1512;51.486;6.610;2023-07-31T22:18:38;17.10;99.90
3005;DHT22;1512;51.486;6.610;2023-07-31T22:22:47;17.10;99.90
3005;DHT22;1512;51.486;6.610;2023-07-31T22:26:55;17.00;99.90
3005;DHT22;1512;51.486;6.610;2023-07-31T22:31:04;17.10;99.90
3005;DHT22;1512;51.486;6.610;2023-07-31T22:35:13;17.10;99.90
3005;DHT22;1512;51.486;6.610;2023-07-31T22:39:21;17.10;99.90
3005;DHT22;1512;51.486;6.610;2023-07-31T22:43:30;17.10;99.90
3005;DHT22;1512;51.486;6.610;2023-07-31T22:47:39;17.00;99.90
3005;DHT22;1512;51.486;6.610;2023-07-31T22:51:48;17.00;99.90
3005;DHT22;1512;51.486;6.610;2023-07-31T22:56:01;17.00;99.90
3005;DHT22;1512;51.486;6.610;2023-07-31T23:00:07;17.00;99.90
3005;DHT22;1512;51.486;6.610;2023-07-31T23:04:15;17.00;99.90
3005;DHT22;1512;51.486;6.610;2023-07-31T23:08:24;17.10;99.90
3005;DHT22;1512;51.486;6.610;2023-07-31T23:12:33;17.00;99.90
3005;DHT22;1512;51.486;6.610;2023-07-31T23:16:42;17.10;99.90
3005;DHT22;1512;51.486;6.610;2023-07-31T23:20:52;17.00;99.90
3005;DHT22;1512;51.486;6.610;2023-07-31T23:25:02;16.90;99.90
3005;DHT22;1512;51.486;6.610;2023-07-31T23:29:11;16.90;99.90
3005;DHT22;1512;51.486;6.610;2023-07-31T23:33:19;16.90;99.90
3005;DHT22;1512;51.486;6.610;2023-07-31T23:37:28;16.90;99.90
3005;DHT22;1512;51.486;6.610;2023-07-31T23:41:37;16.90;99.90
3005;DHT22;1512;51.486;6.610;2023-07-31T23:45:45;16.90;99.90
3005;DHT22;1512;51.486;6.610;2023-07-31T23:49:54;16.90;99.90
3005;DHT22;1512;51.486;6.610;2023-07-31T23:54:02;16.90;99.90
3005;DHT22;1512;51.486;6.610;2023-07-31T23:58:12;17.00;99.90
